sensor_id;sensor_type;location;lat;lon;timestamp;pressure;altitude;pressure_sealevel;temperature;humidity
56831;BME280;42713;42.676;23.352;2023-01-30T00:00:53;95029.28;;;-1.41;75.53
56831;BME280;42713;42.676;23.352;2023-01-30T00:03:19;95034.72;;;-1.44;75.50
56831;BME280;42713;42.676;23.352;2023-01-30T00:05:45;95024.47;;;-1.44;75.52
56831;BME280;42713;42.676;23.352;2023-01-30T00:08:11;95031.53;;;-1.37;75.70
56831;BME280;42713;42.676;23.352;2023-01-30T00:10:36;95038.13;;;-1.35;75.74
56831;BME280;42713;42.676;23.352;2023-01-30T00:13:02;95015.78;;;-1.34;75.46
56831;BME280;42713;42.676;23.352;2023-01-30T00:15:27;95022.38;;;-1.40;75.66
56831;BME280;42713;42.676;23.352;2023-01-30T00:17:52;95028.81;;;-1.36;75.96
56831;BME280;42713;42.676;23.352;2023-01-30T00:20:18;95031.03;;;-1.41;75.85
56831;BME280;42713;42.676;23.352;2023-01-30T00:22:43;95041.16;;;-1.48;75.79
56831;BME280;42713;42.676;23.352;2023-01-30T00:25:09;95027.03;;;-1.44;76.15
56831;BME280;42713;42.676;23.352;2023-01-30T00:27:34;95024.94;;;-1.40;76.10
56831;BME280;42713;42.676;23.352;2023-01-30T00:29:59;95013.69;;;-1.47;76.06
56831;BME280;42713;42.676;23.352;2023-01-30T00:32:28;95024.63;;;-1.53;76.80
56831;BME280;42713;42.676;23.352;2023-01-30T00:34:54;95043.88;;;-1.58;76.88
56831;BME280;42713;42.676;23.352;2023-01-30T00:37:19;95027.81;;;-1.68;77.07
56831;BME280;42713;42.676;23.352;2023-01-30T00:39:45;95019.31;;;-1.68;77.25
56831;BME280;42713;42.676;23.352;2023-01-30T00:42:10;95015.91;;;-1.77;77.52
56831;BME280;42713;42.676;23.352;2023-01-30T00:44:54;95039.69;;;-1.75;77.54
56831;BME280;42713;42.676;23.352;2023-01-30T00:47:38;95005.63;;;-1.77;77.34
56831;BME280;42713;42.676;23.352;2023-01-30T00:50:04;95007.56;;;-1.71;77.41
56831;BME280;42713;42.676;23.352;2023-01-30T00:52:30;95001.00;;;-1.74;77.80
56831;BME280;42713;42.676;23.352;2023-01-30T00:54:55;95009.34;;;-1.72;77.57
56831;BME280;42713;42.676;23.352;2023-01-30T00:57:21;95015.13;;;-1.78;77.77
56831;BME280;42713;42.676;23.352;2023-01-30T00:59:46;95011.25;;;-1.74;77.24
56831;BME280;42713;42.676;23.352;2023-01-30T01:02:12;95017.03;;;-1.72;77.65
56831;BME280;42713;42.676;23.352;2023-01-30T01:04:37;95011.91;;;-1.72;77.57
56831;BME280;42713;42.676;23.352;2023-01-30T01:07:09;95005.81;;;-1.70;77.77
56831;BME280;42713;42.676;23.352;2023-01-30T01:09:34;95001.94;;;-1.66;77.50
56831;BME280;42713;42.676;23.352;2023-01-30T01:12:00;95002.28;;;-1.53;77.54
56831;BME280;42713;42.676;23.352;2023-01-30T01:14:26;95012.41;;;-1.60;77.45
56831;BME280;42713;42.676;23.352;2023-01-30T01:16:51;95006.28;;;-1.67;77.13
56831;BME280;42713;42.676;23.352;2023-01-30T01:19:17;95003.56;;;-1.65;77.17
56831;BME280;42713;42.676;23.352;2023-01-30T01:21:42;94987.84;;;-1.70;77.40
56831;BME280;42713;42.676;23.352;2023-01-30T01:24:11;94977.75;;;-1.72;77.53
56831;BME280;42713;42.676;23.352;2023-01-30T01:26:36;94959.59;;;-1.79;77.36
56831;BME280;42713;42.676;23.352;2023-01-30T01:29:02;94977.41;;;-1.77;77.78
56831;BME280;42713;42.676;23.352;2023-01-30T01:31:27;94984.31;;;-1.69;77.30
56831;BME280;42713;42.676;23.352;2023-01-30T01:33:53;94969.22;;;-1.81;77.47
56831;BME280;42713;42.676;23.352;2023-01-30T01:36:18;94977.56;;;-1.87;77.81
56831;BME280;42713;42.676;23.352;2023-01-30T01:38:44;94982.69;;;-1.79;78.27
56831;BME280;42713;42.676;23.352;2023-01-30T01:41:14;94981.09;;;-1.80;77.58
56831;BME280;42713;42.676;23.352;2023-01-30T01:46:33;94989.59;;;-1.79;77.43
56831;BME280;42713;42.676;23.352;2023-01-30T01:49:02;94981.09;;;-1.72;77.69
56831;BME280;42713;42.676;23.352;2023-01-30T01:52:00;94984.63;;;-1.64;77.30
56831;BME280;42713;42.676;23.352;2023-01-30T01:54:35;94979.19;;;-1.69;77.20
56831;BME280;42713;42.676;23.352;2023-01-30T01:57:05;94984.16;;;-1.68;77.75
56831;BME280;42713;42.676;23.352;2023-01-30T01:59:37;94971.47;;;-1.78;77.36
56831;BME280;42713;42.676;23.352;2023-01-30T02:02:07;94986.53;;;-1.83;77.43
56831;BME280;42713;42.676;23.352;2023-01-30T02:04:35;94971.31;;;-1.76;77.60
56831;BME280;42713;42.676;23.352;2023-01-30T02:07:21;94988.16;;;-1.82;77.09
56831;BME280;42713;42.676;23.352;2023-01-30T02:09:48;94974.47;;;-1.91;77.54
56831;BME280;42713;42.676;23.352;2023-01-30T02:12:14;94970.16;;;-1.82;77.00
56831;BME280;42713;42.676;23.352;2023-01-30T02:14:40;94980.63;;;-1.75;77.09
56831;BME280;42713;42.676;23.352;2023-01-30T02:17:07;94984.63;;;-1.73;77.13
56831;BME280;42713;42.676;23.352;2023-01-30T02:36:47;94971.28;;;-1.84;77.17
56831;BME280;42713;42.676;23.352;2023-01-30T02:39:23;94971.13;;;-1.75;76.67
56831;BME280;42713;42.676;23.352;2023-01-30T02:42:15;94966.16;;;-1.76;77.29
56831;BME280;42713;42.676;23.352;2023-01-30T02:47:45;94965.84;;;-1.81;76.61
56831;BME280;42713;42.676;23.352;2023-01-30T02:50:38;94959.41;;;-1.77;76.87
56831;BME280;42713;42.676;23.352;2023-01-30T02:53:05;94970.19;;;-1.74;76.53
56831;BME280;42713;42.676;23.352;2023-01-30T02:55:31;94962.31;;;-1.72;76.20
56831;BME280;42713;42.676;23.352;2023-01-30T02:57:57;94967.28;;;-1.70;76.05
56831;BME280;42713;42.676;23.352;2023-01-30T03:03:17;94972.13;;;-1.59;75.63
56831;BME280;42713;42.676;23.352;2023-01-30T03:09:06;94974.03;;;-1.53;75.58
56831;BME280;42713;42.676;23.352;2023-01-30T03:17:11;94957.66;;;-1.68;75.36
56831;BME280;42713;42.676;23.352;2023-01-30T03:19:40;94949.50;;;-1.72;75.64
56831;BME280;42713;42.676;23.352;2023-01-30T03:22:06;94947.72;;;-1.80;75.96
56831;BME280;42713;42.676;23.352;2023-01-30T03:24:31;94955.41;;;-1.80;76.09
56831;BME280;42713;42.676;23.352;2023-01-30T03:27:05;94938.88;;;-1.77;75.76
56831;BME280;42713;42.676;23.352;2023-01-30T03:29:32;94944.66;;;-1.83;75.13
56831;BME280;42713;42.676;23.352;2023-01-30T03:31:57;94940.00;;;-1.88;75.00
56831;BME280;42713;42.676;23.352;2023-01-30T03:34:23;94932.78;;;-1.84;75.36
56831;BME280;42713;42.676;23.352;2023-01-30T03:36:49;94946.75;;;-1.79;75.11
56831;BME280;42713;42.676;23.352;2023-01-30T03:39:14;94933.75;;;-1.85;75.32
56831;BME280;42713;42.676;23.352;2023-01-30T03:41:40;94934.88;;;-1.72;74.69
56831;BME280;42713;42.676;23.352;2023-01-30T03:44:05;94928.59;;;-1.69;74.90
56831;BME280;42713;42.676;23.352;2023-01-30T03:46:31;94936.00;;;-1.66;74.78
56831;BME280;42713;42.676;23.352;2023-01-30T03:48:57;94933.59;;;-1.59;74.43
56831;BME280;42713;42.676;23.352;2023-01-30T03:51:22;94936.47;;;-1.54;74.70
56831;BME280;42713;42.676;23.352;2023-01-30T03:53:48;94928.13;;;-1.48;74.61
56831;BME280;42713;42.676;23.352;2023-01-30T03:56:13;94929.25;;;-1.42;74.35
56831;BME280;42713;42.676;23.352;2023-01-30T03:58:39;94932.44;;;-1.48;74.79
56831;BME280;42713;42.676;23.352;2023-01-30T04:01:04;94932.13;;;-1.45;74.68
56831;BME280;42713;42.676;23.352;2023-01-30T04:03:30;94926.84;;;-1.52;74.86
56831;BME280;42713;42.676;23.352;2023-01-30T04:05:55;94917.06;;;-1.65;74.87
56831;BME280;42713;42.676;23.352;2023-01-30T04:08:21;94916.38;;;-1.50;74.88
56831;BME280;42713;42.676;23.352;2023-01-30T04:10:46;94921.22;;;-1.47;74.46
56831;BME280;42713;42.676;23.352;2023-01-30T04:13:12;94923.31;;;-1.51;74.72
56831;BME280;42713;42.676;23.352;2023-01-30T04:15:37;94922.16;;;-1.40;74.66
56831;BME280;42713;42.676;23.352;2023-01-30T04:18:03;94918.63;;;-1.31;74.35
56831;BME280;42713;42.676;23.352;2023-01-30T04:20:28;94924.13;;;-1.42;74.17
56831;BME280;42713;42.676;23.352;2023-01-30T04:22:54;94920.25;;;-1.46;74.21
56831;BME280;42713;42.676;23.352;2023-01-30T04:25:20;94917.38;;;-1.60;74.12
56831;BME280;42713;42.676;23.352;2023-01-30T04:27:46;94923.00;;;-1.73;74.96
56831;BME280;42713;42.676;23.352;2023-01-30T04:30:13;94925.88;;;-1.76;75.34
56831;BME280;42713;42.676;23.352;2023-01-30T04:32:38;94924.78;;;-1.73;75.36
56831;BME280;42713;42.676;23.352;2023-01-30T04:35:04;94917.84;;;-1.81;75.68
56831;BME280;42713;42.676;23.352;2023-01-30T04:37:29;94924.44;;;-1.78;75.84
56831;BME280;42713;42.676;23.352;2023-01-30T04:39:55;94917.38;;;-1.76;75.76
56831;BME280;42713;42.676;23.352;2023-01-30T04:42:23;94923.78;;;-1.80;75.58
56831;BME280;42713;42.676;23.352;2023-01-30T04:44:48;94923.47;;;-1.94;75.99
56831;BME280;42713;42.676;23.352;2023-01-30T04:47:13;94924.25;;;-1.93;76.35
56831;BME280;42713;42.676;23.352;2023-01-30T04:49:39;94911.13;;;-1.90;76.50
56831;BME280;42713;42.676;23.352;2023-01-30T04:52:05;94908.06;;;-1.94;76.43
56831;BME280;42713;42.676;23.352;2023-01-30T04:54:30;94906.47;;;-1.95;76.59
56831;BME280;42713;42.676;23.352;2023-01-30T04:56:56;94905.16;;;-1.91;76.79
56831;BME280;42713;42.676;23.352;2023-01-30T04:59:22;94901.63;;;-1.98;76.80
56831;BME280;42713;42.676;23.352;2023-01-30T05:01:48;94905.50;;;-2.02;76.80
56831;BME280;42713;42.676;23.352;2023-01-30T05:04:13;94911.44;;;-1.93;76.95
56831;BME280;42713;42.676;23.352;2023-01-30T05:06:39;94902.13;;;-1.94;77.10
56831;BME280;42713;42.676;23.352;2023-01-30T05:09:05;94901.50;;;-1.96;77.35
56831;BME280;42713;42.676;23.352;2023-01-30T05:11:31;94891.06;;;-1.95;77.46
56831;BME280;42713;42.676;23.352;2023-01-30T05:13:57;94898.59;;;-1.85;77.48
56831;BME280;42713;42.676;23.352;2023-01-30T05:16:22;94892.97;;;-1.80;77.15
56831;BME280;42713;42.676;23.352;2023-01-30T05:18:49;94902.94;;;-1.77;76.99
56831;BME280;42713;42.676;23.352;2023-01-30T05:21:17;94899.41;;;-1.76;77.12
56831;BME280;42713;42.676;23.352;2023-01-30T05:23:43;94920.13;;;-1.78;77.21
56831;BME280;42713;42.676;23.352;2023-01-30T05:26:10;94913.03;;;-1.84;77.31
56831;BME280;42713;42.676;23.352;2023-01-30T05:28:36;94904.69;;;-1.86;77.27
56831;BME280;42713;42.676;23.352;2023-01-30T05:31:10;94910.81;;;-1.79;77.56
56831;BME280;42713;42.676;23.352;2023-01-30T05:33:37;94910.16;;;-1.81;77.52
56831;BME280;42713;42.676;23.352;2023-01-30T05:36:03;94919.63;;;-1.73;78.02
56831;BME280;42713;42.676;23.352;2023-01-30T05:38:29;94915.59;;;-1.76;77.75
56831;BME280;42713;42.676;23.352;2023-01-30T05:41:05;94906.81;;;-1.81;77.61
56831;BME280;42713;42.676;23.352;2023-01-30T05:43:31;94913.38;;;-1.79;78.10
56831;BME280;42713;42.676;23.352;2023-01-30T05:45:58;94911.75;;;-1.88;78.81
56831;BME280;42713;42.676;23.352;2023-01-30T05:48:24;94908.72;;;-1.83;78.32
56831;BME280;42713;42.676;23.352;2023-01-30T05:50:51;94906.94;;;-1.91;78.06
56831;BME280;42713;42.676;23.352;2023-01-30T05:53:18;94910.78;;;-1.95;78.38
56831;BME280;42713;42.676;23.352;2023-01-30T05:55:43;94913.50;;;-1.97;78.43
56831;BME280;42713;42.676;23.352;2023-01-30T05:58:09;94919.94;;;-1.93;78.84
56831;BME280;42713;42.676;23.352;2023-01-30T06:00:35;94915.94;;;-1.87;78.59
56831;BME280;42713;42.676;23.352;2023-01-30T06:03:00;94926.53;;;-1.82;79.32
56831;BME280;42713;42.676;23.352;2023-01-30T06:05:36;94923.66;;;-1.87;78.94
56831;BME280;42713;42.676;23.352;2023-01-30T06:08:10;94923.00;;;-1.81;78.89
56831;BME280;42713;42.676;23.352;2023-01-30T06:10:35;94937.13;;;-1.77;79.13
56831;BME280;42713;42.676;23.352;2023-01-30T06:13:01;94924.78;;;-1.81;78.99
56831;BME280;42713;42.676;23.352;2023-01-30T06:15:26;94918.66;;;-1.80;79.02
56831;BME280;42713;42.676;23.352;2023-01-30T06:17:52;94917.19;;;-1.66;79.19
56831;BME280;42713;42.676;23.352;2023-01-30T06:20:17;94916.25;;;-1.57;78.67
56831;BME280;42713;42.676;23.352;2023-01-30T06:22:43;94908.38;;;-1.55;78.32
56831;BME280;42713;42.676;23.352;2023-01-30T06:25:08;94908.06;;;-1.69;78.02
56831;BME280;42713;42.676;23.352;2023-01-30T06:27:34;94941.75;;;-1.89;78.95
56831;BME280;42713;42.676;23.352;2023-01-30T06:30:00;94925.09;;;-1.93;79.19
56831;BME280;42713;42.676;23.352;2023-01-30T06:32:25;94923.78;;;-1.97;79.82
56831;BME280;42713;42.676;23.352;2023-01-30T06:34:51;94909.97;;;-2.04;80.01
56831;BME280;42713;42.676;23.352;2023-01-30T06:37:16;94911.75;;;-1.96;80.29
56831;BME280;42713;42.676;23.352;2023-01-30T06:39:42;94919.47;;;-1.96;80.26
56831;BME280;42713;42.676;23.352;2023-01-30T06:42:07;94912.88;;;-1.91;80.35
56831;BME280;42713;42.676;23.352;2023-01-30T06:44:32;94923.47;;;-1.94;80.88
56831;BME280;42713;42.676;23.352;2023-01-30T06:46:58;94919.00;;;-1.83;80.32
56831;BME280;42713;42.676;23.352;2023-01-30T06:49:23;94916.25;;;-1.82;80.54
56831;BME280;42713;42.676;23.352;2023-01-30T06:51:49;94920.91;;;-1.85;80.06
56831;BME280;42713;42.676;23.352;2023-01-30T06:54:14;94918.81;;;-1.82;81.06
56831;BME280;42713;42.676;23.352;2023-01-30T06:56:40;94923.47;;;-1.77;79.97
56831;BME280;42713;42.676;23.352;2023-01-30T06:59:05;94927.47;;;-1.83;79.92
56831;BME280;42713;42.676;23.352;2023-01-30T07:01:31;94934.41;;;-1.83;79.57
56831;BME280;42713;42.676;23.352;2023-01-30T07:03:57;94929.56;;;-1.86;79.42
56831;BME280;42713;42.676;23.352;2023-01-30T07:06:25;94921.38;;;-1.82;79.71
56831;BME280;42713;42.676;23.352;2023-01-30T07:08:51;94922.19;;;-1.90;79.08
56831;BME280;42713;42.676;23.352;2023-01-30T07:11:17;94932.13;;;-1.86;79.96
56831;BME280;42713;42.676;23.352;2023-01-30T07:13:43;94931.34;;;-1.79;79.44
56831;BME280;42713;42.676;23.352;2023-01-30T07:16:08;94926.84;;;-1.77;79.40
56831;BME280;42713;42.676;23.352;2023-01-30T07:18:33;94937.91;;;-1.76;79.47
56831;BME280;42713;42.676;23.352;2023-01-30T07:20:59;94937.44;;;-1.63;79.51
56831;BME280;42713;42.676;23.352;2023-01-30T07:23:24;94939.22;;;-1.72;78.59
56831;BME280;42713;42.676;23.352;2023-01-30T07:25:50;94936.47;;;-1.87;78.57
56831;BME280;42713;42.676;23.352;2023-01-30T07:28:15;94935.97;;;-1.99;79.03
56831;BME280;42713;42.676;23.352;2023-01-30T07:30:41;94941.28;;;-1.92;79.84
56831;BME280;42713;42.676;23.352;2023-01-30T07:33:06;94949.78;;;-1.83;79.71
56831;BME280;42713;42.676;23.352;2023-01-30T07:35:33;94949.94;;;-1.85;79.48
56831;BME280;42713;42.676;23.352;2023-01-30T07:38:00;94947.88;;;-1.81;79.51
56831;BME280;42713;42.676;23.352;2023-01-30T07:40:25;94942.75;;;-1.73;78.88
56831;BME280;42713;42.676;23.352;2023-01-30T07:43:05;94950.28;;;-1.72;78.97
56831;BME280;42713;42.676;23.352;2023-01-30T07:45:42;94952.06;;;-1.72;78.74
56831;BME280;42713;42.676;23.352;2023-01-30T07:48:10;94954.75;;;-1.74;78.35
56831;BME280;42713;42.676;23.352;2023-01-30T07:50:36;94948.84;;;-1.66;78.69
56831;BME280;42713;42.676;23.352;2023-01-30T07:53:04;94945.94;;;-1.54;77.95
56831;BME280;42713;42.676;23.352;2023-01-30T07:55:30;94950.25;;;-1.47;77.83
56831;BME280;42713;42.676;23.352;2023-01-30T07:57:56;94937.13;;;-1.52;76.70
56831;BME280;42713;42.676;23.352;2023-01-30T08:00:21;94935.03;;;-1.48;77.26
56831;BME280;42713;42.676;23.352;2023-01-30T08:02:47;94930.34;;;-1.45;76.43
56831;BME280;42713;42.676;23.352;2023-01-30T08:05:12;94915.91;;;-1.46;76.48
56831;BME280;42713;42.676;23.352;2023-01-30T08:07:38;94917.69;;;-1.46;76.18
56831;BME280;42713;42.676;23.352;2023-01-30T08:10:04;94920.09;;;-1.45;76.01
56831;BME280;42713;42.676;23.352;2023-01-30T08:12:30;94911.72;;;-1.47;76.78
56831;BME280;42713;42.676;23.352;2023-01-30T08:14:56;94922.84;;;-1.54;76.59
56831;BME280;42713;42.676;23.352;2023-01-30T08:17:21;94916.38;;;-1.50;76.29
56831;BME280;42713;42.676;23.352;2023-01-30T08:19:47;94907.06;;;-1.51;76.27
56831;BME280;42713;42.676;23.352;2023-01-30T08:22:13;94922.66;;;-1.45;76.19
56831;BME280;42713;42.676;23.352;2023-01-30T08:24:39;94919.94;;;-1.43;76.64
56831;BME280;42713;42.676;23.352;2023-01-30T08:27:04;94921.38;;;-1.41;76.66
56831;BME280;42713;42.676;23.352;2023-01-30T08:29:30;94910.75;;;-1.46;76.07
56831;BME280;42713;42.676;23.352;2023-01-30T08:31:57;94911.44;;;-1.52;77.04
56831;BME280;42713;42.676;23.352;2023-01-30T08:34:23;94906.13;;;-1.42;76.91
56831;BME280;42713;42.676;23.352;2023-01-30T08:36:49;94906.41;;;-1.29;75.96
56831;BME280;42713;42.676;23.352;2023-01-30T08:39:15;94893.06;;;-1.24;75.60
56831;BME280;42713;42.676;23.352;2023-01-30T08:41:40;94897.41;;;-1.24;74.50
56831;BME280;42713;42.676;23.352;2023-01-30T08:44:09;94903.03;;;-1.21;75.04
56831;BME280;42713;42.676;23.352;2023-01-30T08:46:34;94888.56;;;-1.14;74.17
56831;BME280;42713;42.676;23.352;2023-01-30T08:49:00;94887.41;;;-1.11;74.72
56831;BME280;42713;42.676;23.352;2023-01-30T08:51:25;94886.16;;;-1.15;73.90
56831;BME280;42713;42.676;23.352;2023-01-30T08:53:51;94886.97;;;-1.23;74.44
56831;BME280;42713;42.676;23.352;2023-01-30T08:56:17;94889.69;;;-1.16;73.99
56831;BME280;42713;42.676;23.352;2023-01-30T08:58:43;94884.56;;;-1.24;74.88
56831;BME280;42713;42.676;23.352;2023-01-30T09:01:11;94881.81;;;-1.23;74.94
56831;BME280;42713;42.676;23.352;2023-01-30T09:03:37;94887.75;;;-1.22;74.33
56831;BME280;42713;42.676;23.352;2023-01-30T09:06:03;94876.25;;;-1.35;75.01
56831;BME280;42713;42.676;23.352;2023-01-30T09:08:28;94871.75;;;-1.33;74.75
56831;BME280;42713;42.676;23.352;2023-01-30T09:11:03;94871.09;;;-1.27;74.76
56831;BME280;42713;42.676;23.352;2023-01-30T09:13:29;94872.84;;;-1.19;74.18
56831;BME280;42713;42.676;23.352;2023-01-30T09:15:56;94882.00;;;-1.24;73.64
56831;BME280;42713;42.676;23.352;2023-01-30T09:18:22;94875.59;;;-1.37;73.33
56831;BME280;42713;42.676;23.352;2023-01-30T09:20:47;94868.38;;;-1.42;73.16
56831;BME280;42713;42.676;23.352;2023-01-30T09:23:12;94866.63;;;-1.49;74.05
56831;BME280;42713;42.676;23.352;2023-01-30T09:25:38;94859.88;;;-1.42;73.71
56831;BME280;42713;42.676;23.352;2023-01-30T09:28:04;94862.44;;;-1.50;73.84
56831;BME280;42713;42.676;23.352;2023-01-30T09:30:29;94876.09;;;-1.42;74.27
56831;BME280;42713;42.676;23.352;2023-01-30T09:32:55;94871.13;;;-1.43;73.64
56831;BME280;42713;42.676;23.352;2023-01-30T09:35:20;94868.56;;;-1.43;73.89
56831;BME280;42713;42.676;23.352;2023-01-30T09:37:51;94855.53;;;-1.42;73.39
56831;BME280;42713;42.676;23.352;2023-01-30T09:40:19;94855.06;;;-1.45;73.72
56831;BME280;42713;42.676;23.352;2023-01-30T09:43:12;94874.31;;;-1.41;73.67
56831;BME280;42713;42.676;23.352;2023-01-30T09:51:10;94846.09;;;-1.58;74.76
56831;BME280;42713;42.676;23.352;2023-01-30T09:56:04;94844.16;;;-1.47;74.01
56831;BME280;42713;42.676;23.352;2023-01-30T09:59:02;94840.59;;;-1.38;74.40
56831;BME280;42713;42.676;23.352;2023-01-30T10:02:00;94836.75;;;-1.42;74.61
56831;BME280;42713;42.676;23.352;2023-01-30T10:04:33;94841.91;;;-1.42;74.88
56831;BME280;42713;42.676;23.352;2023-01-30T10:12:44;94813.06;;;-1.77;75.58
56831;BME280;42713;42.676;23.352;2023-01-30T10:23:46;94800.06;;;-1.84;74.87
56831;BME280;42713;42.676;23.352;2023-01-30T10:26:16;94797.84;;;-1.87;74.95
56831;BME280;42713;42.676;23.352;2023-01-30T10:28:55;94793.50;;;-1.86;74.82
56831;BME280;42713;42.676;23.352;2023-01-30T10:31:24;94780.66;;;-1.78;75.32
56831;BME280;42713;42.676;23.352;2023-01-30T10:34:09;94812.88;;;-1.76;73.84
56831;BME280;42713;42.676;23.352;2023-01-30T10:36:51;94768.16;;;-1.81;73.58
56831;BME280;42713;42.676;23.352;2023-01-30T10:39:53;94755.91;;;-1.71;72.62
56831;BME280;42713;42.676;23.352;2023-01-30T10:42:26;94774.50;;;-1.61;72.63
56831;BME280;42713;42.676;23.352;2023-01-30T10:45:07;94756.78;;;-1.87;73.22
56831;BME280;42713;42.676;23.352;2023-01-30T10:47:44;94748.41;;;-1.81;73.35
56831;BME280;42713;42.676;23.352;2023-01-30T10:50:22;94745.66;;;-1.79;73.35
56831;BME280;42713;42.676;23.352;2023-01-30T10:52:55;94736.53;;;-1.82;73.07
56831;BME280;42713;42.676;23.352;2023-01-30T10:55:59;94725.94;;;-1.79;73.43
56831;BME280;42713;42.676;23.352;2023-01-30T11:03:40;94710.56;;;-1.47;72.16
56831;BME280;42713;42.676;23.352;2023-01-30T11:06:15;94687.75;;;-1.42;71.83
56831;BME280;42713;42.676;23.352;2023-01-30T11:08:41;94716.03;;;-1.42;72.23
56831;BME280;42713;42.676;23.352;2023-01-30T11:11:30;94706.72;;;-1.51;71.54
56831;BME280;42713;42.676;23.352;2023-01-30T11:14:05;94689.84;;;-1.46;71.18
56831;BME280;42713;42.676;23.352;2023-01-30T11:16:33;94700.06;;;-1.29;70.93
56831;BME280;42713;42.676;23.352;2023-01-30T11:19:05;94688.63;;;-1.27;70.43
56831;BME280;42713;42.676;23.352;2023-01-30T11:21:31;94674.34;;;-1.29;70.42
56831;BME280;42713;42.676;23.352;2023-01-30T11:24:04;94671.13;;;-1.54;71.13
56831;BME280;42713;42.676;23.352;2023-01-30T11:26:35;94665.75;;;-1.45;70.94
56831;BME280;42713;42.676;23.352;2023-01-30T11:29:29;94665.13;;;-1.47;71.10
56831;BME280;42713;42.676;23.352;2023-01-30T11:32:04;94662.72;;;-1.48;70.66
56831;BME280;42713;42.676;23.352;2023-01-30T11:34:30;94650.97;;;-1.43;70.71
56831;BME280;42713;42.676;23.352;2023-01-30T11:37:24;94660.88;;;-1.31;70.60
56831;BME280;42713;42.676;23.352;2023-01-30T11:39:52;94652.34;;;-1.32;70.95
56831;BME280;42713;42.676;23.352;2023-01-30T11:42:28;94644.75;;;-1.25;71.09
56831;BME280;42713;42.676;23.352;2023-01-30T11:44:57;94629.41;;;-1.10;70.60
56831;BME280;42713;42.676;23.352;2023-01-30T11:47:25;94627.88;;;-1.19;70.48
56831;BME280;42713;42.676;23.352;2023-01-30T11:49:53;94618.78;;;-1.07;70.02
56831;BME280;42713;42.676;23.352;2023-01-30T11:52:32;94599.41;;;-0.95;70.01
56831;BME280;42713;42.676;23.352;2023-01-30T11:55:03;94609.75;;;-1.03;69.52
56831;BME280;42713;42.676;23.352;2023-01-30T11:58:02;94603.38;;;-1.07;69.49
56831;BME280;42713;42.676;23.352;2023-01-30T12:00:40;94608.69;;;-1.08;70.36
56831;BME280;42713;42.676;23.352;2023-01-30T12:03:11;94612.91;;;-1.39;70.42
56831;BME280;42713;42.676;23.352;2023-01-30T12:05:40;94585.53;;;-1.32;70.29
56831;BME280;42713;42.676;23.352;2023-01-30T12:10:50;94573.56;;;-1.16;70.30
56831;BME280;42713;42.676;23.352;2023-01-30T12:13:39;94576.13;;;-1.16;70.17
56831;BME280;42713;42.676;23.352;2023-01-30T12:16:20;94564.13;;;-1.24;70.45
56831;BME280;42713;42.676;23.352;2023-01-30T12:19:00;94568.94;;;-1.21;70.35
56831;BME280;42713;42.676;23.352;2023-01-30T12:24:19;94558.16;;;-1.39;70.32
56831;BME280;42713;42.676;23.352;2023-01-30T12:26:52;94554.88;;;-1.33;70.06
56831;BME280;42713;42.676;23.352;2023-01-30T12:29:28;94548.50;;;-1.37;70.03
56831;BME280;42713;42.676;23.352;2023-01-30T12:32:11;94537.16;;;-1.43;70.19
56831;BME280;42713;42.676;23.352;2023-01-30T12:34:39;94529.81;;;-1.31;70.04
56831;BME280;42713;42.676;23.352;2023-01-30T12:51:35;94515.28;;;-0.56;66.65
56831;BME280;42713;42.676;23.352;2023-01-30T12:59:37;94502.59;;;-0.42;65.75
56831;BME280;42713;42.676;23.352;2023-01-30T13:19:03;94496.13;;;-0.98;67.91
56831;BME280;42713;42.676;23.352;2023-01-30T13:21:43;94487.34;;;-1.04;68.24
56831;BME280;42713;42.676;23.352;2023-01-30T13:24:35;94493.38;;;-1.12;68.93
56831;BME280;42713;42.676;23.352;2023-01-30T13:27:14;94490.28;;;-1.07;68.93
56831;BME280;42713;42.676;23.352;2023-01-30T13:29:42;94477.31;;;-1.14;69.16
56831;BME280;42713;42.676;23.352;2023-01-30T13:32:33;94475.19;;;-1.10;69.44
56831;BME280;42713;42.676;23.352;2023-01-30T13:35:00;94475.03;;;-1.08;69.21
56831;BME280;42713;42.676;23.352;2023-01-30T13:37:28;94467.13;;;-1.07;69.05
56831;BME280;42713;42.676;23.352;2023-01-30T13:39:57;94484.16;;;-1.06;68.67
56831;BME280;42713;42.676;23.352;2023-01-30T13:45:19;94460.41;;;-0.93;67.92
56831;BME280;42713;42.676;23.352;2023-01-30T13:53:56;94464.81;;;-1.02;67.92
56831;BME280;42713;42.676;23.352;2023-01-30T13:56:42;94464.66;;;-0.85;67.93
56831;BME280;42713;42.676;23.352;2023-01-30T14:02:16;94463.94;;;-0.49;66.72
56831;BME280;42713;42.676;23.352;2023-01-30T14:04:56;94463.28;;;-0.36;66.14
56831;BME280;42713;42.676;23.352;2023-01-30T14:07:40;94457.47;;;-0.23;65.75
56831;BME280;42713;42.676;23.352;2023-01-30T14:10:15;94460.56;;;-0.13;65.04
56831;BME280;42713;42.676;23.352;2023-01-30T14:12:46;94466.16;;;0.12;64.49
56831;BME280;42713;42.676;23.352;2023-01-30T14:18:21;94460.84;;;0.86;61.99
56831;BME280;42713;42.676;23.352;2023-01-30T14:20:51;94451.16;;;0.88;61.79
56831;BME280;42713;42.676;23.352;2023-01-30T14:23:31;94459.09;;;0.93;61.54
56831;BME280;42713;42.676;23.352;2023-01-30T14:25:57;94462.75;;;0.77;61.52
56831;BME280;42713;42.676;23.352;2023-01-30T14:30:51;94459.88;;;0.93;61.08
56831;BME280;42713;42.676;23.352;2023-01-30T14:35:47;94456.25;;;0.81;61.46
56831;BME280;42713;42.676;23.352;2023-01-30T14:38:18;94457.34;;;1.00;60.68
56831;BME280;42713;42.676;23.352;2023-01-30T14:43:34;94451.84;;;1.03;60.15
56831;BME280;42713;42.676;23.352;2023-01-30T14:46:11;94442.03;;;0.92;60.15
56831;BME280;42713;42.676;23.352;2023-01-30T15:00:14;94423.84;;;1.00;60.26
56831;BME280;42713;42.676;23.352;2023-01-30T15:02:59;94420.50;;;1.06;59.21
56831;BME280;42713;42.676;23.352;2023-01-30T15:05:40;94431.53;;;0.93;59.57
56831;BME280;42713;42.676;23.352;2023-01-30T15:08:17;94429.09;;;0.85;60.29
56831;BME280;42713;42.676;23.352;2023-01-30T15:13:21;94427.66;;;0.04;62.54
56831;BME280;42713;42.676;23.352;2023-01-30T15:18:47;94436.09;;;-0.90;65.38
56831;BME280;42713;42.676;23.352;2023-01-30T15:27:04;94436.38;;;-1.15;67.73
56831;BME280;42713;42.676;23.352;2023-01-30T15:32:22;94432.63;;;-1.43;68.29
56831;BME280;42713;42.676;23.352;2023-01-30T15:34:53;94436.69;;;-1.48;69.03